sensor_id;sensor_type;location;lat;lon;timestamp;temperature;humidity
22623;DHT22;11478;51.094;7.030;2023-02-15T00:01:45;-0.20;99.90
22623;DHT22;11478;51.094;7.030;2023-02-15T00:04:14;-0.20;99.90
22623;DHT22;11478;51.094;7.030;2023-02-15T00:06:40;-0.20;99.90
22623;DHT22;11478;51.094;7.030;2023-02-15T00:09:14;-0.20;99.90
22623;DHT22;11478;51.094;7.030;2023-02-15T00:11:40;-0.30;99.90
22623;DHT22;11478;51.094;7.030;2023-02-15T00:14:10;-0.30;99.90
22623;DHT22;11478;51.094;7.030;2023-02-15T00:16:37;-0.30;99.90
22623;DHT22;11478;51.094;7.030;2023-02-15T00:19:07;-0.30;99.90
22623;DHT22;11478;51.094;7.030;2023-02-15T00:21:34;-0.30;99.90
22623;DHT22;11478;51.094;7.030;2023-02-15T00:24:03;-0.40;99.90
22623;DHT22;11478;51.094;7.030;2023-02-15T00:26:29;-0.40;99.90
22623;DHT22;11478;51.094;7.030;2023-02-15T00:29:27;-0.40;99.90
22623;DHT22;11478;51.094;7.030;2023-02-15T00:31:53;-0.40;99.90
22623;DHT22;11478;51.094;7.030;2023-02-15T00:34:21;-0.40;99.90
22623;DHT22;11478;51.094;7.030;2023-02-15T00:36:48;-0.40;99.90
22623;DHT22;11478;51.094;7.030;2023-02-15T00:39:15;-0.40;99.90
22623;DHT22;11478;51.094;7.030;2023-02-15T00:41:41;-0.40;99.90
22623;DHT22;11478;51.094;7.030;2023-02-15T00:44:08;-0.40;99.90
22623;DHT22;11478;51.094;7.030;2023-02-15T00:46:34;-0.40;99.90
22623;DHT22;11478;51.094;7.030;2023-02-15T00:49:03;-0.40;99.90
22623;DHT22;11478;51.094;7.030;2023-02-15T00:51:30;-0.50;99.90
22623;DHT22;11478;51.094;7.030;2023-02-15T00:53:57;-0.50;99.90
22623;DHT22;11478;51.094;7.030;2023-02-15T00:56:22;-0.50;99.90
22623;DHT22;11478;51.094;7.030;2023-02-15T00:58:56;-0.50;99.90
22623;DHT22;11478;51.094;7.030;2023-02-15T01:01:22;-0.50;99.90
22623;DHT22;11478;51.094;7.030;2023-02-15T01:03:52;-0.50;99.90
22623;DHT22;11478;51.094;7.030;2023-02-15T01:06:18;-0.60;99.90
22623;DHT22;11478;51.094;7.030;2023-02-15T01:08:45;-0.60;99.90
22623;DHT22;11478;51.094;7.030;2023-02-15T01:11:16;-0.60;99.90
22623;DHT22;11478;51.094;7.030;2023-02-15T01:13:51;-0.60;99.90
22623;DHT22;11478;51.094;7.030;2023-02-15T01:16:18;-0.60;99.90
22623;DHT22;11478;51.094;7.030;2023-02-15T01:18:44;-0.60;99.90
22623;DHT22;11478;51.094;7.030;2023-02-15T01:21:16;-0.60;99.90
22623;DHT22;11478;51.094;7.030;2023-02-15T01:23:42;-0.60;99.90
22623;DHT22;11478;51.094;7.030;2023-02-15T01:26:09;-0.70;99.90
22623;DHT22;11478;51.094;7.030;2023-02-15T01:28:35;-0.70;99.90
22623;DHT22;11478;51.094;7.030;2023-02-15T01:31:11;-0.70;99.90
22623;DHT22;11478;51.094;7.030;2023-02-15T01:33:37;-0.70;99.90
22623;DHT22;11478;51.094;7.030;2023-02-15T01:36:09;-0.70;99.90
22623;DHT22;11478;51.094;7.030;2023-02-15T01:38:35;-0.60;99.90
22623;DHT22;11478;51.094;7.030;2023-02-15T01:41:02;-0.70;99.90
22623;DHT22;11478;51.094;7.030;2023-02-15T01:43:59;-0.60;99.90
22623;DHT22;11478;51.094;7.030;2023-02-15T01:46:42;-0.60;99.90
22623;DHT22;11478;51.094;7.030;2023-02-15T01:49:20;-0.70;99.90
22623;DHT22;11478;51.094;7.030;2023-02-15T01:51:50;-0.70;99.90
22623;DHT22;11478;51.094;7.030;2023-02-15T01:54:29;-0.80;99.90
22623;DHT22;11478;51.094;7.030;2023-02-15T01:57:00;-0.80;99.90
22623;DHT22;11478;51.094;7.030;2023-02-15T01:59:45;-0.70;99.90
22623;DHT22;11478;51.094;7.030;2023-02-15T02:02:13;-0.70;99.90
22623;DHT22;11478;51.094;7.030;2023-02-15T02:04:48;-0.70;99.90
22623;DHT22;11478;51.094;7.030;2023-02-15T02:07:17;-0.80;99.90
22623;DHT22;11478;51.094;7.030;2023-02-15T02:09:45;-0.80;99.90
22623;DHT22;11478;51.094;7.030;2023-02-15T02:12:11;-0.70;99.90
22623;DHT22;11478;51.094;7.030;2023-02-15T02:14:39;-0.70;99.90
22623;DHT22;11478;51.094;7.030;2023-02-15T02:20:26;-0.80;99.90
22623;DHT22;11478;51.094;7.030;2023-02-15T02:26:35;-0.80;99.90
22623;DHT22;11478;51.094;7.030;2023-02-15T02:34:24;-0.90;99.90
22623;DHT22;11478;51.094;7.030;2023-02-15T02:37:20;-0.80;99.90
22623;DHT22;11478;51.094;7.030;2023-02-15T02:48:09;-0.80;99.90
22623;DHT22;11478;51.094;7.030;2023-02-15T02:50:39;-0.90;99.90
22623;DHT22;11478;51.094;7.030;2023-02-15T02:53:06;-0.90;99.90
22623;DHT22;11478;51.094;7.030;2023-02-15T02:58:34;-0.90;99.90
22623;DHT22;11478;51.094;7.030;2023-02-15T03:01:09;-0.90;99.90
22623;DHT22;11478;51.094;7.030;2023-02-15T03:03:51;-0.90;99.90
22623;DHT22;11478;51.094;7.030;2023-02-15T03:07:04;-0.90;99.90
22623;DHT22;11478;51.094;7.030;2023-02-15T03:09:42;-0.90;99.90
22623;DHT22;11478;51.094;7.030;2023-02-15T03:12:25;-0.90;99.90
22623;DHT22;11478;51.094;7.030;2023-02-15T03:14:57;-1.00;99.90
22623;DHT22;11478;51.094;7.030;2023-02-15T03:17:27;-1.00;99.90
22623;DHT22;11478;51.094;7.030;2023-02-15T03:20:02;-0.90;99.90
22623;DHT22;11478;51.094;7.030;2023-02-15T03:22:35;-1.00;99.90
22623;DHT22;11478;51.094;7.030;2023-02-15T03:27:49;-1.00;99.90
22623;DHT22;11478;51.094;7.030;2023-02-15T03:30:19;-1.00;99.90
22623;DHT22;11478;51.094;7.030;2023-02-15T03:32:47;-1.00;99.90
22623;DHT22;11478;51.094;7.030;2023-02-15T03:35:14;-1.00;99.90
22623;DHT22;11478;51.094;7.030;2023-02-15T03:37:56;-1.00;99.90
22623;DHT22;11478;51.094;7.030;2023-02-15T03:40:40;-1.00;99.90
22623;DHT22;11478;51.094;7.030;2023-02-15T03:44:04;-1.00;99.90
22623;DHT22;11478;51.094;7.030;2023-02-15T03:46:49;-1.00;99.90
22623;DHT22;11478;51.094;7.030;2023-02-15T03:51:44;-1.10;99.90
22623;DHT22;11478;51.094;7.030;2023-02-15T03:54:31;-1.00;99.90
22623;DHT22;11478;51.094;7.030;2023-02-15T03:57:26;-1.10;99.90
22623;DHT22;11478;51.094;7.030;2023-02-15T04:03:15;-1.10;99.90
22623;DHT22;11478;51.094;7.030;2023-02-15T04:05:45;-1.10;99.90
22623;DHT22;11478;51.094;7.030;2023-02-15T04:08:12;-1.10;99.90
22623;DHT22;11478;51.094;7.030;2023-02-15T04:10:38;-1.10;99.90
22623;DHT22;11478;51.094;7.030;2023-02-15T04:13:31;-1.10;99.90
22623;DHT22;11478;51.094;7.030;2023-02-15T04:15:58;-1.10;99.90
22623;DHT22;11478;51.094;7.030;2023-02-15T04:18:40;-1.20;99.90
22623;DHT22;11478;51.094;7.030;2023-02-15T04:21:28;-1.10;99.90
22623;DHT22;11478;51.094;7.030;2023-02-15T04:24:12;-1.20;99.90
22623;DHT22;11478;51.094;7.030;2023-02-15T04:27:00;-1.20;99.90
22623;DHT22;11478;51.094;7.030;2023-02-15T04:29:26;-1.20;99.90
22623;DHT22;11478;51.094;7.030;2023-02-15T04:31:56;-1.20;99.90
22623;DHT22;11478;51.094;7.030;2023-02-15T04:34:24;-1.20;99.90
22623;DHT22;11478;51.094;7.030;2023-02-15T04:36:50;-1.20;99.90
22623;DHT22;11478;51.094;7.030;2023-02-15T04:39:18;-1.20;99.90
22623;DHT22;11478;51.094;7.030;2023-02-15T04:41:44;-1.20;99.90
22623;DHT22;11478;51.094;7.030;2023-02-15T04:44:15;-1.20;99.90
22623;DHT22;11478;51.094;7.030;2023-02-15T04:46:41;-1.20;99.90
22623;DHT22;11478;51.094;7.030;2023-02-15T04:49:12;-1.20;99.90
22623;DHT22;11478;51.094;7.030;2023-02-15T04:51:43;-1.30;99.90
22623;DHT22;11478;51.094;7.030;2023-02-15T04:54:09;-1.20;99.90
22623;DHT22;11478;51.094;7.030;2023-02-15T04:56:43;-1.20;99.90
22623;DHT22;11478;51.094;7.030;2023-02-15T04:59:12;-1.20;99.90
22623;DHT22;11478;51.094;7.030;2023-02-15T05:01:38;-1.20;99.90
22623;DHT22;11478;51.094;7.030;2023-02-15T05:04:04;-1.20;99.90
22623;DHT22;11478;51.094;7.030;2023-02-15T05:06:32;-1.20;99.90
22623;DHT22;11478;51.094;7.030;2023-02-15T05:08:57;-1.30;99.90
22623;DHT22;11478;51.094;7.030;2023-02-15T05:11:25;-1.30;99.90
22623;DHT22;11478;51.094;7.030;2023-02-15T05:13:51;-1.30;99.90
22623;DHT22;11478;51.094;7.030;2023-02-15T05:16:18;-1.30;99.90
22623;DHT22;11478;51.094;7.030;2023-02-15T05:18:43;-1.30;99.90
22623;DHT22;11478;51.094;7.030;2023-02-15T05:21:19;-1.40;99.90
22623;DHT22;11478;51.094;7.030;2023-02-15T05:23:45;-1.30;99.90
22623;DHT22;11478;51.094;7.030;2023-02-15T05:26:12;-1.40;99.90
22623;DHT22;11478;51.094;7.030;2023-02-15T05:28:56;-1.30;99.90
22623;DHT22;11478;51.094;7.030;2023-02-15T05:31:22;-1.30;99.90
22623;DHT22;11478;51.094;7.030;2023-02-15T05:33:48;-1.30;99.90
22623;DHT22;11478;51.094;7.030;2023-02-15T05:36:13;-1.30;99.90
22623;DHT22;11478;51.094;7.030;2023-02-15T05:38:39;-1.30;99.90
22623;DHT22;11478;51.094;7.030;2023-02-15T05:41:06;-1.40;99.90
22623;DHT22;11478;51.094;7.030;2023-02-15T05:43:32;-1.40;99.90
22623;DHT22;11478;51.094;7.030;2023-02-15T05:45:58;-1.40;99.90
22623;DHT22;11478;51.094;7.030;2023-02-15T05:48:25;-1.40;99.90
22623;DHT22;11478;51.094;7.030;2023-02-15T05:51:09;-1.40;99.90
22623;DHT22;11478;51.094;7.030;2023-02-15T05:53:37;-1.40;99.90
22623;DHT22;11478;51.094;7.030;2023-02-15T05:56:07;-1.40;99.90
22623;DHT22;11478;51.094;7.030;2023-02-15T05:58:36;-1.40;99.90
22623;DHT22;11478;51.094;7.030;2023-02-15T06:01:16;-1.40;99.90
22623;DHT22;11478;51.094;7.030;2023-02-15T06:03:43;-1.40;99.90
22623;DHT22;11478;51.094;7.030;2023-02-15T06:06:20;-1.40;99.90
22623;DHT22;11478;51.094;7.030;2023-02-15T06:08:45;-1.40;99.90
22623;DHT22;11478;51.094;7.030;2023-02-15T06:11:11;-1.40;99.90
22623;DHT22;11478;51.094;7.030;2023-02-15T06:13:37;-1.40;99.90
22623;DHT22;11478;51.094;7.030;2023-02-15T06:16:03;-1.40;99.90
22623;DHT22;11478;51.094;7.030;2023-02-15T06:18:29;-1.40;99.90
22623;DHT22;11478;51.094;7.030;2023-02-15T06:20:56;-1.40;99.90
22623;DHT22;11478;51.094;7.030;2023-02-15T06:23:22;-1.40;99.90
22623;DHT22;11478;51.094;7.030;2023-02-15T06:25:48;-1.40;99.90
22623;DHT22;11478;51.094;7.030;2023-02-15T06:28:14;-1.40;99.90
22623;DHT22;11478;51.094;7.030;2023-02-15T06:30:40;-1.40;99.90
22623;DHT22;11478;51.094;7.030;2023-02-15T06:33:05;-1.40;99.90
22623;DHT22;11478;51.094;7.030;2023-02-15T06:35:33;-1.40;99.90
22623;DHT22;11478;51.094;7.030;2023-02-15T06:37:59;-1.50;99.90
22623;DHT22;11478;51.094;7.030;2023-02-15T06:40:25;-1.50;99.90
22623;DHT22;11478;51.094;7.030;2023-02-15T06:42:50;-1.50;99.90
22623;DHT22;11478;51.094;7.030;2023-02-15T06:45:30;-1.50;99.90
22623;DHT22;11478;51.094;7.030;2023-02-15T06:47:55;-1.50;99.90
22623;DHT22;11478;51.094;7.030;2023-02-15T06:50:21;-1.50;99.90
22623;DHT22;11478;51.094;7.030;2023-02-15T06:52:47;-1.50;99.90
22623;DHT22;11478;51.094;7.030;2023-02-15T06:55:12;-1.50;99.90
22623;DHT22;11478;51.094;7.030;2023-02-15T06:57:39;-1.50;99.90
22623;DHT22;11478;51.094;7.030;2023-02-15T07:00:06;-1.40;99.90
22623;DHT22;11478;51.094;7.030;2023-02-15T07:02:43;-1.50;99.90
22623;DHT22;11478;51.094;7.030;2023-02-15T07:05:09;-1.50;99.90
22623;DHT22;11478;51.094;7.030;2023-02-15T07:07:35;-1.50;99.90
22623;DHT22;11478;51.094;7.030;2023-02-15T07:10:02;-1.40;99.90
22623;DHT22;11478;51.094;7.030;2023-02-15T07:12:30;-1.40;99.90
22623;DHT22;11478;51.094;7.030;2023-02-15T07:15:18;-1.40;99.90
22623;DHT22;11478;51.094;7.030;2023-02-15T07:17:46;-1.40;99.90
22623;DHT22;11478;51.094;7.030;2023-02-15T07:20:19;-1.30;99.90
22623;DHT22;11478;51.094;7.030;2023-02-15T07:22:45;-1.30;99.90
22623;DHT22;11478;51.094;7.030;2023-02-15T07:25:18;-1.30;99.90
22623;DHT22;11478;51.094;7.030;2023-02-15T07:27:44;-1.20;99.90
22623;DHT22;11478;51.094;7.030;2023-02-15T07:30:13;-1.20;99.90
22623;DHT22;11478;51.094;7.030;2023-02-15T07:32:39;-1.20;99.90
22623;DHT22;11478;51.094;7.030;2023-02-15T07:35:36;-1.20;99.90
22623;DHT22;11478;51.094;7.030;2023-02-15T07:38:02;-1.10;99.90
22623;DHT22;11478;51.094;7.030;2023-02-15T07:40:28;-1.10;99.90
22623;DHT22;11478;51.094;7.030;2023-02-15T07:42:53;-1.00;99.90
22623;DHT22;11478;51.094;7.030;2023-02-15T07:45:24;-1.00;99.90
22623;DHT22;11478;51.094;7.030;2023-02-15T07:47:49;-0.90;99.90
22623;DHT22;11478;51.094;7.030;2023-02-15T07:50:15;-0.90;99.90
22623;DHT22;11478;51.094;7.030;2023-02-15T07:52:42;-0.90;99.90
22623;DHT22;11478;51.094;7.030;2023-02-15T07:55:10;-0.80;99.90
22623;DHT22;11478;51.094;7.030;2023-02-15T07:57:44;-0.80;99.90
22623;DHT22;11478;51.094;7.030;2023-02-15T08:00:12;-0.80;99.90
22623;DHT22;11478;51.094;7.030;2023-02-15T08:02:41;-0.70;99.90
22623;DHT22;11478;51.094;7.030;2023-02-15T08:05:07;-0.60;99.90
22623;DHT22;11478;51.094;7.030;2023-02-15T08:07:33;-0.60;99.90
22623;DHT22;11478;51.094;7.030;2023-02-15T08:09:59;-0.50;99.90
22623;DHT22;11478;51.094;7.030;2023-02-15T08:12:30;-0.50;99.90
22623;DHT22;11478;51.094;7.030;2023-02-15T08:14:56;-0.40;99.90
22623;DHT22;11478;51.094;7.030;2023-02-15T08:17:21;-0.40;99.90
22623;DHT22;11478;51.094;7.030;2023-02-15T08:19:48;-0.30;99.90
22623;DHT22;11478;51.094;7.030;2023-02-15T08:22:14;-0.20;99.90
22623;DHT22;11478;51.094;7.030;2023-02-15T08:24:40;-0.10;99.90
22623;DHT22;11478;51.094;7.030;2023-02-15T08:27:10;0.00;99.90
22623;DHT22;11478;51.094;7.030;2023-02-15T08:29:37;0.10;99.90
22623;DHT22;11478;51.094;7.030;2023-02-15T08:32:09;0.30;99.90
22623;DHT22;11478;51.094;7.030;2023-02-15T08:34:38;0.40;99.90
22623;DHT22;11478;51.094;7.030;2023-02-15T08:37:06;0.50;99.90
22623;DHT22;11478;51.094;7.030;2023-02-15T08:39:32;0.70;99.90
22623;DHT22;11478;51.094;7.030;2023-02-15T08:41:58;0.80;99.90
22623;DHT22;11478;51.094;7.030;2023-02-15T08:44:24;0.90;99.90
22623;DHT22;11478;51.094;7.030;2023-02-15T08:46:52;1.00;99.90
22623;DHT22;11478;51.094;7.030;2023-02-15T08:49:20;1.20;99.90
22623;DHT22;11478;51.094;7.030;2023-02-15T08:51:48;1.40;99.90
22623;DHT22;11478;51.094;7.030;2023-02-15T08:54:16;1.60;99.90
22623;DHT22;11478;51.094;7.030;2023-02-15T08:56:45;1.70;99.90
22623;DHT22;11478;51.094;7.030;2023-02-15T08:59:14;1.80;99.90
22623;DHT22;11478;51.094;7.030;2023-02-15T09:01:40;1.80;99.90
22623;DHT22;11478;51.094;7.030;2023-02-15T09:04:07;1.90;99.90
22623;DHT22;11478;51.094;7.030;2023-02-15T09:06:37;2.00;99.90
22623;DHT22;11478;51.094;7.030;2023-02-15T09:09:03;2.10;99.90
22623;DHT22;11478;51.094;7.030;2023-02-15T09:11:31;2.30;99.90
22623;DHT22;11478;51.094;7.030;2023-02-15T09:14:16;2.40;99.90
22623;DHT22;11478;51.094;7.030;2023-02-15T09:16:44;2.60;99.90
22623;DHT22;11478;51.094;7.030;2023-02-15T09:19:13;2.80;99.90
22623;DHT22;11478;51.094;7.030;2023-02-15T09:21:39;3.00;99.90
22623;DHT22;11478;51.094;7.030;2023-02-15T09:24:36;3.60;99.90
22623;DHT22;11478;51.094;7.030;2023-02-15T09:27:02;4.70;99.90
22623;DHT22;11478;51.094;7.030;2023-02-15T09:29:27;5.80;99.90
22623;DHT22;11478;51.094;7.030;2023-02-15T09:31:53;6.50;99.90
22623;DHT22;11478;51.094;7.030;2023-02-15T09:34:22;6.60;99.90
22623;DHT22;11478;51.094;7.030;2023-02-15T09:36:48;6.50;99.90
22623;DHT22;11478;51.094;7.030;2023-02-15T09:39:16;6.60;99.90
22623;DHT22;11478;51.094;7.030;2023-02-15T09:50:44;6.10;99.90
22623;DHT22;11478;51.094;7.030;2023-02-15T09:53:22;6.10;99.90
22623;DHT22;11478;51.094;7.030;2023-02-15T10:01:44;7.30;99.90
22623;DHT22;11478;51.094;7.030;2023-02-15T10:07:33;7.70;99.90
22623;DHT22;11478;51.094;7.030;2023-02-15T10:10:06;7.90;99.90
22623;DHT22;11478;51.094;7.030;2023-02-15T10:26:20;8.00;99.90
22623;DHT22;11478;51.094;7.030;2023-02-15T10:28:52;7.90;99.90
22623;DHT22;11478;51.094;7.030;2023-02-15T10:34:18;8.10;99.90
22623;DHT22;11478;51.094;7.030;2023-02-15T10:51:06;7.50;99.90
22623;DHT22;11478;51.094;7.030;2023-02-15T10:54:03;7.40;99.90
22623;DHT22;11478;51.094;7.030;2023-02-15T11:05:14;7.60;99.90
22623;DHT22;11478;51.094;7.030;2023-02-15T11:07:43;7.70;99.90
22623;DHT22;11478;51.094;7.030;2023-02-15T11:12:48;7.80;99.90
22623;DHT22;11478;51.094;7.030;2023-02-15T11:16:05;7.90;99.90
22623;DHT22;11478;51.094;7.030;2023-02-15T11:18:32;8.00;99.90
22623;DHT22;11478;51.094;7.030;2023-02-15T11:21:09;8.00;99.90
22623;DHT22;11478;51.094;7.030;2023-02-15T11:23:53;8.00;99.90
22623;DHT22;11478;51.094;7.030;2023-02-15T11:26:46;8.10;99.90
22623;DHT22;11478;51.094;7.030;2023-02-15T11:31:55;8.30;99.90
22623;DHT22;11478;51.094;7.030;2023-02-15T11:34:34;8.40;99.90
22623;DHT22;11478;51.094;7.030;2023-02-15T11:37:10;8.40;99.90
22623;DHT22;11478;51.094;7.030;2023-02-15T11:39:42;8.60;99.90
22623;DHT22;11478;51.094;7.030;2023-02-15T11:42:14;8.70;99.90
22623;DHT22;11478;51.094;7.030;2023-02-15T11:44:56;8.80;99.90
22623;DHT22;11478;51.094;7.030;2023-02-15T11:47:24;9.10;99.90
22623;DHT22;11478;51.094;7.030;2023-02-15T11:49:51;9.20;99.90
22623;DHT22;11478;51.094;7.030;2023-02-15T11:52:18;9.30;99.90
22623;DHT22;11478;51.094;7.030;2023-02-15T11:54:50;9.40;99.90
22623;DHT22;11478;51.094;7.030;2023-02-15T12:00:43;9.50;99.90
22623;DHT22;11478;51.094;7.030;2023-02-15T12:05:51;9.60;99.90
22623;DHT22;11478;51.094;7.030;2023-02-15T12:08:23;9.80;99.90
22623;DHT22;11478;51.094;7.030;2023-02-15T12:11:02;9.80;99.90
22623;DHT22;11478;51.094;7.030;2023-02-15T12:13:30;9.80;99.90
22623;DHT22;11478;51.094;7.030;2023-02-15T12:15:59;9.70;99.90
22623;DHT22;11478;51.094;7.030;2023-02-15T12:18:39;9.70;99.90
22623;DHT22;11478;51.094;7.030;2023-02-15T12:21:15;9.70;99.90
22623;DHT22;11478;51.094;7.030;2023-02-15T12:23:54;9.70;99.90
22623;DHT22;11478;51.094;7.030;2023-02-15T12:26:32;9.80;99.90
22623;DHT22;11478;51.094;7.030;2023-02-15T12:29:07;9.90;99.90
22623;DHT22;11478;51.094;7.030;2023-02-15T12:31:40;9.90;99.90
22623;DHT22;11478;51.094;7.030;2023-02-15T12:36:46;10.00;99.90
22623;DHT22;11478;51.094;7.030;2023-02-15T12:39:27;10.00;99.90
22623;DHT22;11478;51.094;7.030;2023-02-15T12:44:33;9.90;99.90
22623;DHT22;11478;51.094;7.030;2023-02-15T12:47:26;9.80;99.90
22623;DHT22;11478;51.094;7.030;2023-02-15T12:50:14;9.80;99.90
22623;DHT22;11478;51.094;7.030;2023-02-15T12:52:46;9.90;99.90
22623;DHT22;11478;51.094;7.030;2023-02-15T12:57:46;10.20;99.90
22623;DHT22;11478;51.094;7.030;2023-02-15T13:03:03;10.30;99.90
22623;DHT22;11478;51.094;7.030;2023-02-15T13:05:55;10.30;99.90
22623;DHT22;11478;51.094;7.030;2023-02-15T13:08:28;10.40;99.90
22623;DHT22;11478;51.094;7.030;2023-02-15T13:10:55;10.40;99.90
22623;DHT22;11478;51.094;7.030;2023-02-15T13:13:25;10.50;99.90
22623;DHT22;11478;51.094;7.030;2023-02-15T13:15:55;10.60;99.90
22623;DHT22;11478;51.094;7.030;2023-02-15T13:18:38;10.70;99.90
22623;DHT22;11478;51.094;7.030;2023-02-15T13:21:41;10.70;99.90
22623;DHT22;11478;51.094;7.030;2023-02-15T13:24:32;10.80;99.90
22623;DHT22;11478;51.094;7.030;2023-02-15T13:26:59;10.90;99.90
22623;DHT22;11478;51.094;7.030;2023-02-15T13:29:31;10.90;99.90
22623;DHT22;11478;51.094;7.030;2023-02-15T13:32:12;10.80;99.90
22623;DHT22;11478;51.094;7.030;2023-02-15T13:34:40;10.80;99.90
22623;DHT22;11478;51.094;7.030;2023-02-15T13:37:20;10.70;99.90
22623;DHT22;11478;51.094;7.030;2023-02-15T13:40:08;10.80;99.90
22623;DHT22;11478;51.094;7.030;2023-02-15T13:42:41;10.80;99.90
22623;DHT22;11478;51.094;7.030;2023-02-15T14:19:35;10.80;99.90
22623;DHT22;11478;51.094;7.030;2023-02-15T14:24:55;10.90;99.90
22623;DHT22;11478;51.094;7.030;2023-02-15T14:27:43;11.00;99.90
22623;DHT22;11478;51.094;7.030;2023-02-15T14:30:18;10.90;99.90
22623;DHT22;11478;51.094;7.030;2023-02-15T14:32:56;10.80;99.90
22623;DHT22;11478;51.094;7.030;2023-02-15T14:35:28;10.70;99.90
22623;DHT22;11478;51.094;7.030;2023-02-15T14:40:57;10.40;99.90
22623;DHT22;11478;51.094;7.030;2023-02-15T14:49:26;10.00;99.90
22623;DHT22;11478;51.094;7.030;2023-02-15T14:52:12;10.10;99.90
22623;DHT22;11478;51.094;7.030;2023-02-15T15:02:25;9.80;99.90
22623;DHT22;11478;51.094;7.030;2023-02-15T15:07:28;9.60;99.90
22623;DHT22;11478;51.094;7.030;2023-02-15T15:10:07;9.50;99.90
22623;DHT22;11478;51.094;7.030;2023-02-15T15:20:50;9.30;99.90
22623;DHT22;11478;51.094;7.030;2023-02-15T15:26:43;9.20;99.90
22623;DHT22;11478;51.094;7.030;2023-02-15T15:28:55;9.10;99.90
22623;DHT22;11478;51.094;7.030;2023-02-15T15:50:47;8.50;99.90
22623;DHT22;11478;51.094;7.030;2023-02-15T15:53:39;8.50;99.90
22623;DHT22;11478;51.094;7.030;2023-02-15T15:56:15;8.40;99.90
22623;DHT22;11478;51.094;7.030;2023-02-15T15:59:02;8.30;99.90
22623;DHT22;11478;51.094;7.030;2023-02-15T16:01:35;8.10;99.90
22623;DHT22;11478;51.094;7.030;2023-02-15T16:04:01;8.00;99.90
22623;DHT22;11478;51.094;7.030;2023-02-15T16:06:38;7.90;99.90
22623;DHT22;11478;51.094;7.030;2023-02-15T16:09:18;7.90;99.90
22623;DHT22;11478;51.094;7.030;2023-02-15T16:11:58;7.80;99.90
22623;DHT22;11478;51.094;7.030;2023-02-15T16:14:40;7.70;99.90
22623;DHT22;11478;51.094;7.030;2023-02-15T16:17:17;7.60;99.90
22623;DHT22;11478;51.094;7.030;2023-02-15T16:19:45;7.40;99.90
22623;DHT22;11478;51.094;7.030;2023-02-15T16:22:24;7.30;99.90
22623;DHT22;11478;51.094;7.030;2023-02-15T16:27:41;7.10;99.90
22623;DHT22;11478;51.094;7.030;2023-02-15T16:30:30;7.00;99.90
22623;DHT22;11478;51.094;7.030;2023-02-15T16:33:15;6.90;99.90
22623;DHT22;11478;51.094;7.030;2023-02-15T16:35:54;6.70;99.90
22623;DHT22;11478;51.094;7.030;2023-02-15T16:41:15;6.50;99.90
22623;DHT22;11478;51.094;7.030;2023-02-15T16:43:44;6.40;99.90
22623;DHT22;11478;51.094;7.030;2023-02-15T16:48:46;6.10;99.90
22623;DHT22;11478;51.094;7.030;2023-02-15T16:51:27;6.00;99.90
22623;DHT22;11478;51.094;7.030;2023-02-15T16:53:54;6.00;99.90
22623;DHT22;11478;51.094;7.030;2023-02-15T16:56:27;5.90;99.90
22623;DHT22;11478;51.094;7.030;2023-02-15T16:58:56;5.80;99.90
22623;DHT22;11478;51.094;7.030;2023-02-15T17:01:26;5.60;99.90
22623;DHT22;11478;51.094;7.030;2023-02-15T17:04:33;5.50;99.90
22623;DHT22;11478;51.094;7.030;2023-02-15T17:07:06;5.40;99.90
22623;DHT22;11478;51.094;7.030;2023-02-15T17:09:32;5.30;99.90
22623;DHT22;11478;51.094;7.030;2023-02-15T17:11:58;5.20;99.90
22623;DHT22;11478;51.094;7.030;2023-02-15T17:14:30;5.10;99.90
22623;DHT22;11478;51.094;7.030;2023-02-15T17:17:06;5.00;99.90
22623;DHT22;11478;51.094;7.030;2023-02-15T17:19:52;4.90;99.90
22623;DHT22;11478;51.094;7.030;2023-02-15T17:22:24;4.90;99.90
22623;DHT22;11478;51.094;7.030;2023-02-15T17:25:02;4.80;99.90
22623;DHT22;11478;51.094;7.030;2023-02-15T17:27:30;4.80;99.90
22623;DHT22;11478;51.094;7.030;2023-02-15T17:30:11;4.70;99.90
22623;DHT22;11478;51.094;7.030;2023-02-15T17:32:38;4.70;99.90
22623;DHT22;11478;51.094;7.030;2023-02-15T17:35:23;4.60;99.90
22623;DHT22;11478;51.094;7.030;2023-02-15T17:38:10;4.60;99.90
22623;DHT22;11478;51.094;7.030;2023-02-15T17:40:40;4.60;99.90
22623;DHT22;11478;51.094;7.030;2023-02-15T17:43:06;4.50;99.90
22623;DHT22;11478;51.094;7.030;2023-02-15T17:45:35;4.50;99.90
22623;DHT22;11478;51.094;7.030;2023-02-15T17:48:04;4.40;99.90
22623;DHT22;11478;51.094;7.030;2023-02-15T17:50:32;4.40;99.90
22623;DHT22;11478;51.094;7.030;2023-02-15T17:52:59;4.40;99.90
22623;DHT22;11478;51.094;7.030;2023-02-15T17:55:27;4.40;99.90
22623;DHT22;11478;51.094;7.030;2023-02-15T17:58:10;4.30;99.90
22623;DHT22;11478;51.094;7.030;2023-02-15T18:00:44;4.30;99.90
22623;DHT22;11478;51.094;7.030;2023-02-15T18:06:18;4.10;99.90
22623;DHT22;11478;51.094;7.030;2023-02-15T18:09:02;4.00;99.90
22623;DHT22;11478;51.094;7.030;2023-02-15T18:11:47;3.90;99.90
22623;DHT22;11478;51.094;7.030;2023-02-15T18:14:15;3.90;99.90
22623;DHT22;11478;51.094;7.030;2023-02-15T18:16:43;3.90;99.90
22623;DHT22;11478;51.094;7.030;2023-02-15T18:19:16;3.90;99.90
22623;DHT22;11478;51.094;7.030;2023-02-15T18:22:01;3.90;99.90
22623;DHT22;11478;51.094;7.030;2023-02-15T18:24:27;3.80;99.90
22623;DHT22;11478;51.094;7.030;2023-02-15T18:26:53;3.80;99.90
22623;DHT22;11478;51.094;7.030;2023-02-15T18:29:19;3.70;99.90
22623;DHT22;11478;51.094;7.030;2023-02-15T18:31:48;3.60;99.90
22623;DHT22;11478;51.094;7.030;2023-02-15T18:34:35;3.60;99.90
22623;DHT22;11478;51.094;7.030;2023-02-15T18:37:03;3.60;99.90
22623;DHT22;11478;51.094;7.030;2023-02-15T18:39:49;3.60;99.90
22623;DHT22;11478;51.094;7.030;2023-02-15T18:42:27;3.50;99.90
22623;DHT22;11478;51.094;7.030;2023-02-15T18:44:58;3.50;99.90
22623;DHT22;11478;51.094;7.030;2023-02-15T18:47:24;3.50;99.90
22623;DHT22;11478;51.094;7.030;2023-02-15T18:49:51;3.50;99.90
22623;DHT22;11478;51.094;7.030;2023-02-15T18:52:19;3.40;99.90
22623;DHT22;11478;51.094;7.030;2023-02-15T18:54:47;3.40;99.90
22623;DHT22;11478;51.094;7.030;2023-02-15T18:57:20;3.30;99.90
22623;DHT22;11478;51.094;7.030;2023-02-15T18:59:45;3.30;99.90
22623;DHT22;11478;51.094;7.030;2023-02-15T19:02:16;3.30;99.90
22623;DHT22;11478;51.094;7.030;2023-02-15T19:04:43;3.30;99.90
22623;DHT22;11478;51.094;7.030;2023-02-15T19:07:32;3.20;99.90
22623;DHT22;11478;51.094;7.030;2023-02-15T19:10:00;3.20;99.90
22623;DHT22;11478;51.094;7.030;2023-02-15T19:12:29;3.20;99.90
22623;DHT22;11478;51.094;7.030;2023-02-15T19:14:55;3.20;99.90
22623;DHT22;11478;51.094;7.030;2023-02-15T19:17:22;3.20;99.90
22623;DHT22;11478;51.094;7.030;2023-02-15T19:19:49;3.20;99.90
22623;DHT22;11478;51.094;7.030;2023-02-15T19:22:24;3.10;99.90
22623;DHT22;11478;51.094;7.030;2023-02-15T19:24:51;3.10;99.90
22623;DHT22;11478;51.094;7.030;2023-02-15T19:27:22;3.00;99.90
22623;DHT22;11478;51.094;7.030;2023-02-15T19:29:50;3.00;99.90
22623;DHT22;11478;51.094;7.030;2023-02-15T19:32:26;3.00;99.90
22623;DHT22;11478;51.094;7.030;2023-02-15T19:34:52;3.00;99.90
22623;DHT22;11478;51.094;7.030;2023-02-15T19:39:55;2.90;99.90
22623;DHT22;11478;51.094;7.030;2023-02-15T19:42:22;2.90;99.90